Latest Coastal Weather Observations for Broome

IDW60701

Issued at 12:45 pm WST Monday 21 April 2014 (issued every 10 minutes, with the page automatically refreshed every 10 minutes)

About coastal observations | Map of coastal stations | Coastal observations for WA | Marine services | Other Formats
Station Details ID: 003003 Name: BROOME AIRPORT Lat: -17.95 Lon: 122.24 Height: 7.42 m
Data from the previous 72 hours. | See also: Recent months at Broome
Date/Time
WST
Temp

°C
Wind Pressure Rain
since 9am
mm
Weather Cloud Vis
km
Sea
Height
m
Swell
Dir
 
Speed
knots
Gust
knots
hPa Trend Height
m
Period
s
Dir
21/12:30pm 34.3 S 5 7 1010.0 - 0.0 - - 10 - - - -
21/12:00pm 33.6 S 5 7 1010.3 S 0.0 Fine Mostly clear 40 - - - -
21/11:30am 32.9 SE 5 8 1011.0 - 0.0 - - 10 - - - -
21/11:00am 32.0 SSE 5 7 1011.4 - 0.0 - - 10 - - - -
21/10:30am 30.8 SSE 5 8 1011.7 - 0.0 - - 10 - - - -
21/10:00am 30.2 SE 6 8 1011.9 - 0.0 - - 10 - - - -
21/09:30am 29.3 ESE 7 10 1012.2 - 0.0 - - 10 - - - -
21/09:00am 28.2 ESE 7 9 1012.2 F 0.0 Fine Mostly clear 40 - - - -
21/08:30am 27.4 ESE 6 7 1012.2 - 0.0 - - 10 - - - -
21/08:00am 26.2 ESE 5 6 1012.0 - 0.0 - - 10 - - - -
21/07:30am 24.5 E 5 7 1012.0 - 0.0 - - 10 - - - -
21/07:00am 22.9 ENE 3 4 1011.9 - 0.0 - - 10 - - - -
21/06:30am 21.4 E 3 4 1011.7 - 0.0 - - 10 - - - -
21/06:00am 20.8 E 3 5 1011.4 R 0.0 Fine Partly cloudy 35 - - - -
21/05:30am 20.6 CALM 0 0 1011.1 - 0.0 - - 10 - - - -
21/05:00am 20.6 NNE 5 6 1010.9 - 0.0 - - 10 - - - -
21/04:30am 21.2 CALM 0 0 1010.4 - 0.0 - - 10 - - - -
21/04:00am 21.3 CALM 0 0 1010.3 - 0.0 - - 10 - - - -
21/03:30am 22.0 CALM 0 0 1010.2 - 0.0 - - 10 - - - -
21/03:00am 21.9 CALM 0 0 1010.0 - 0.0 - - 10 - - - -
21/02:30am 22.1 CALM 0 0 1010.1 - 0.0 - - 10 - - - -
21/02:00am 22.5 CALM 0 0 1010.2 - 0.0 - - 10 - - - -
21/01:30am 22.9 CALM 0 0 1010.3 - 0.0 - - 10 - - - -
21/01:00am 24.0 N 2 6 1010.3 - 0.0 - - 10 - - - -
21/12:30am 22.9 NNW 3 4 1010.4 - 0.0 - - 10 - - - -
21/12:00am 22.7 N 2 3 1010.6 - 0.0 - - 10 - - - -
 
Date/Time
WST
Temp

°C
Wind Pressure Rain
since 9am
mm
Weather Cloud Vis
km
Sea
Height
m
Swell
Dir
 
Speed
knots
Gust
knots
hPa Trend Height
m
Period
s
Dir
20/11:30pm 22.8 N 7 9 1010.7 - 0.0 - - 10 - - - -
20/11:00pm 23.0 NNE 5 6 1010.8 - 0.0 - - 10 - - - -
20/10:30pm 24.2 CALM 0 3 1010.8 - 0.0 - - 10 - - - -
20/10:00pm 27.2 WSW 4 5 1010.8 - 0.0 - - 10 - - - -
20/09:30pm 27.4 W 4 6 1011.0 - 0.0 - - 10 - - - -
20/09:00pm 27.8 W 6 8 1010.9 R 0.0 Fine Mostly cloudy 40 - - - -
20/08:30pm 27.3 W 4 4 1010.9 - 0.0 - - 10 - - - -
20/08:00pm 28.1 W 3 5 1010.8 - 0.0 - - 10 - - - -
20/07:30pm 28.1 NNW 4 6 1010.4 - 0.0 - - 10 - - - -
20/07:00pm 28.7 NW 7 9 1009.9 - 0.0 - - 10 - - - -
20/06:30pm 28.6 W 4 8 1009.5 - 0.0 - - 10 - - - -
20/06:00pm 29.7 W 6 8 1009.0 F 0.0 Fine Mostly cloudy 35 - - - -
20/05:30pm 30.7 NW 4 5 1008.9 - 0.0 - - 10 - - - -
20/05:00pm 32.3 WNW 5 6 1008.7 - 0.0 - - 10 - - - -
20/04:30pm 33.5 NNE 2 6 1008.4 - 0.0 - - 10 - - - -
20/04:00pm 35.0 SSE 4 6 1008.3 - 0.0 - - 10 - - - -
20/03:30pm 34.9 SSE 6 7 1008.3 - 0.0 - - 10 - - - -
20/03:00pm 35.0 SSE 5 8 1008.2 F 0.0 Fine Mostly cloudy 35 - - - -
20/02:30pm 35.7 SSE 4 6 1008.4 - 0.0 - - 10 - - - -
20/02:00pm 35.2 SE 5 8 1008.5 - 0.0 - - 10 - - - -
20/01:30pm 35.5 ESE 6 8 1008.7 - 0.0 - - 10 - - - -
20/01:00pm 35.4 SE 7 10 1009.1 - 0.0 - - 10 - - - -
20/12:30pm 34.6 E 7 10 1009.6 - 0.0 - - 10 - - - -
20/12:00pm 34.1 E 7 11 1010.0 R 0.0 Fine Mostly cloudy 35 - - - -
20/11:30am 33.4 ENE 9 11 1010.5 - 0.0 - - 10 - - - -
20/11:00am 33.1 ENE 9 12 1010.9 - 0.0 - - 10 - - - -
20/10:30am 32.1 E 9 14 1011.3 - 0.0 - - 10 - - - -
20/10:00am 31.1 E 8 13 1011.6 - 0.0 - - 10 - - - -
20/09:30am 29.5 ENE 8 11 1011.8 - 0.0 - - 10 - - - -
20/09:00am 28.8 E 8 11 1011.7 F 0.0 Smoke Mostly cloudy 40 - - - -
20/08:30am 28.0 E 7 10 1011.7 - 0.0 - - 10 - - - -
20/08:00am 27.2 ESE 6 8 1011.7 - 0.0 - - 10 - - - -
20/07:30am 25.2 ESE 5 8 1011.6 - 0.0 - - 10 - - - -
20/07:00am 22.5 ESE 5 6 1011.4 - 0.0 - - 10 - - - -
20/06:30am 20.2 ESE 5 6 1011.2 - 0.0 - - 10 - - - -
20/06:00am 18.1 E 3 4 1010.9 F 0.0 Smoke Partly cloudy 40 - - - -
20/05:30am 19.0 NE 4 5 1010.9 - 0.0 - - 10 - - - -
20/05:00am 19.9 NNE 1 3 1010.7 - 0.0 - - 10 - - - -
20/04:30am 20.2 CALM 0 0 1010.6 - 0.0 - - 10 - - - -
20/04:00am 21.2 CALM 0 0 1010.6 - 0.0 - - 10 - - - -
20/03:30am 21.8 ENE 3 4 1010.6 - 0.0 - - 10 - - - -
20/03:00am 21.3 NNE 3 4 1010.5 - 0.0 - - 10 - - - -
20/02:30am 21.1 CALM 0 0 1010.5 - 0.0 - - 10 - - - -
20/02:00am 21.1 CALM 0 0 1010.5 - 0.0 - - 10 - - - -
20/01:30am 21.8 CALM 0 0 1010.6 - 0.0 - - 10 - - - -
20/01:00am 21.7 CALM 0 0 1010.8 - 0.0 - - 10 - - - -
20/12:30am 22.2 CALM 0 0 1011.1 - 0.0 - - 10 - - - -
20/12:00am 22.1 CALM 0 0 1011.2 - 0.0 - - 10 - - - -
 
Date/Time
WST
Temp

°C
Wind Pressure Rain
since 9am
mm
Weather Cloud Vis
km
Sea
Height
m
Swell
Dir
 
Speed
knots
Gust
knots
hPa Trend Height
m
Period
s
Dir
19/11:30pm 22.3 CALM 0 0 1011.5 - 0.0 - - 10 - - - -
19/11:00pm 22.1 CALM 0 3 1011.6 - 0.0 - - 10 - - - -
19/10:30pm 21.8 NNE 1 4 1011.7 - 0.0 - - 10 - - - -
19/10:00pm 22.8 NNE 3 4 1011.7 - 0.0 - - 10 - - - -
19/09:30pm 23.5 N 4 4 1011.7 - 0.0 - - 10 - - - -
19/09:00pm 24.3 N 5 6 1011.5 R 0.0 Fine Mostly clear 40 - - - -
19/08:30pm 26.2 CALM 0 0 1011.6 - 0.0 - - 10 - - - -
19/08:00pm 28.3 W 4 7 1011.4 - 0.0 - - 10 - - - -
19/07:30pm 25.3 NE 3 5 1010.6 - 0.0 - - 10 - - - -
19/07:00pm 26.2 N 4 6 1010.2 - 0.0 - - 10 - - - -
19/06:30pm 27.6 CALM 0 2 1009.8 - 0.0 - - 10 - - - -
19/06:00pm 30.6 SW 5 6 1009.4 F 0.0 Fine Mostly clear 40 - - - -
19/05:30pm 31.7 SW 7 9 1009.3 - 0.0 - - 10 - - - -
19/05:00pm 33.5 WSW 5 7 1009.1 - 0.0 - - 10 - - - -
19/04:30pm 34.1 W 4 8 1009.1 - 0.0 - - 10 - - - -
19/04:00pm 35.0 E 2 6 1008.9 - 0.0 - - 10 - - - -
19/03:30pm 35.1 S 5 7 1008.9 - 0.0 - - 10 - - - -
19/03:00pm 35.3 S 6 9 1008.8 F 0.0 Fine Mostly clear 40 - - - -
19/02:30pm 35.3 SE 7 10 1008.9 - 0.0 - - 10 - - - -
19/02:00pm 35.3 SE 6 9 1009.1 - 0.0 - Partly cloudy 10 - - - -
19/01:30pm 34.5 SE 7 10 1009.4 - 0.0 - Partly cloudy 10 - - - -
19/01:00pm 35.1 ESE 7 10 1009.9 - 0.0 - - 10 - - - -
19/12:30pm 34.5 SE 8 11 1010.4 - 0.0 - - 10 - - - -
19/12:00pm 34.1 SE 9 11 1010.8 F 0.0 Fine Partly cloudy 40 - - - -
19/11:30am 33.2 SE 7 10 1011.4 - 0.0 - - 10 - - - -
19/11:00am 32.9 ESE 7 9 1011.9 - 0.0 - - 10 - - - -
19/10:30am 32.5 E 7 11 1012.5 - 0.0 - - 10 - - - -
19/10:00am 31.4 ESE 8 12 1012.9 - 0.0 - - 10 - - - -
19/09:30am 30.3 ESE 8 11 1013.0 - 0.0 - - 10 - - - -
19/09:00am 28.6 ESE 7 9 1013.0 F 0.0 Fine Mostly clear 40 - - - -
19/08:30am 28.0 ESE 7 9 1013.0 - 0.0 - - 10 - - - -
19/08:00am 27.4 ESE 7 9 1013.1 - 0.0 - - 10 - - - -
19/07:30am 26.9 ESE 7 9 1013.0 - 0.0 - - 10 - - - -
19/07:00am 26.8 ESE 6 9 1012.8 - 0.0 - - 10 - - - -
19/06:30am 27.0 SE 6 8 1012.6 - 0.0 - - 10 - - - -
19/06:00am 26.9 SSE 7 8 1012.4 F 0.0 Fine Mostly clear 40 - - - -
19/05:30am 27.7 SSE 8 12 1012.2 - 0.0 - - 10 - - - -
19/05:00am 27.9 S 9 13 1012.0 - 0.0 - - 10 - - - -
19/04:30am 26.8 S 7 10 1011.9 - 0.0 - - 10 - - - -
19/04:00am 26.5 S 7 9 1012.0 - 0.0 - - 10 - - - -
19/03:30am 26.7 SSE 6 8 1012.0 - 0.0 - - 10 - - - -
19/03:00am 27.5 S 9 13 1011.8 - 0.0 - - 10 - - - -
19/02:30am 27.8 S 9 12 1011.9 - 0.0 - - 10 - - - -
19/02:00am 27.2 SSW 7 10 1012.0 - 0.0 - - 10 - - - -
19/01:30am 26.5 SSW 6 7 1012.1 - 0.0 - - 10 - - - -
19/01:00am 26.8 S 4 5 1012.4 - 0.0 - - 10 - - - -
19/12:30am 27.7 S 6 8 1012.7 - 0.0 - - 10 - - - -
19/12:00am 27.2 S 6 8 1012.9 - 0.0 - - 10 - - - -
 
Date/Time
WST
Temp

°C
Wind Pressure Rain
since 9am
mm
Weather Cloud Vis
km
Sea
Height
m
Swell
Dir
 
Speed
knots
Gust
knots
hPa Trend Height
m
Period
s
Dir
18/11:30pm 27.4 SW 6 8 1013.0 - 0.0 - - 10 - - - -
18/11:00pm 28.0 SE 7 8 1013.2 - 0.0 - - 10 - - - -
18/10:30pm 26.3 S 4 5 1013.6 - 0.0 - - 10 - - - -
18/10:00pm 26.4 WSW 5 6 1013.7 - 0.0 - - 10 - - - -
18/09:30pm 26.3 SW 4 5 1013.7 - 0.0 - - 10 - - - -
18/09:00pm 23.8 N 4 5 1013.4 R 0.0 Fine Clear 40 - - - -
18/08:30pm 25.9 CALM 0 4 1013.3 - 0.0 - - 10 - - - -
18/08:00pm 26.0 NNW 3 6 1012.9 - 0.0 - - 10 - - - -
18/07:30pm 28.7 SSW 4 5 1012.4 - 0.0 - - 10 - - - -
18/07:00pm 28.4 SSW 3 3 1012.0 - 0.0 - - 10 - - - -
18/06:30pm 29.7 SSW 3 4 1011.7 - 0.0 - - 10 - - - -
18/06:00pm 29.7 SSW 1 4 1011.1 F 0.0 Fine Clear 40 - - - -
18/05:30pm 31.5 NE 2 3 1010.8 - 0.0 - - 10 - - - -
18/05:00pm 33.0 ENE 5 6 1010.6 - 0.0 - - 10 - - - -
18/04:30pm 34.4 ENE 6 9 1010.3 - 0.0 - - 10 - - - -
18/04:00pm 34.9 ENE 8 11 1010.0 - 0.0 - - 10 - - - -
18/03:30pm 35.1 ENE 9 14 1010.1 - 0.0 - - 10 - - - -
18/03:00pm 35.2 NE 9 15 1010.1 S 0.0 Fine Clear 40 - - - -
18/02:30pm 35.2 E 8 11 1010.4 - 0.0 - - 10 - - - -
18/02:00pm 35.4 E 9 15 1010.4 - 0.0 - - 10 - - - -
18/01:30pm 35.1 E 11 16 1010.7 - 0.0 - - 10 - - - -
18/01:00pm 35.1 E 12 16 1011.0 - 0.0 - - 10 - - - -

Other Formats:

Comma delimited format used in spreadsheet applications
http://www.bom.gov.au/fwo/IDW60701/IDW60701.94203.axf

JavaScript Object Notation format (JSON) in row-major order
http://www.bom.gov.au/fwo/IDW60701/IDW60701.94203.json